General Aviation Weather

Text Reports

Enter one or more of the following location identifiers separated by a space:

Zip Code, Four-Character ICAO or Three-Character IATA airport codes.

METAR - Aviation Routine Weather Report
KPUC - Price, Utah
Updated at 3:53 PM GMT on August 29, 2014 (9:53 AM MDT):
METAR KPUC 291553Z AUTO 23003KT 10SM CLR 20/06 A3023 RMK AO2 SLP168 T02000061
TAF - Terminal Area Forecast
KPUC - Price, Utah
Updated at 3:53 PM GMT on August 29, 2014 (9:53 AM MDT):
No TAF is currently available for this location.
Decoded:
No decoded TAF is available.
PIREP - Pilot Weather Report
KPUC - Price, Utah
Updated at 3:53 PM GMT on August 29, 2014 (9:53 AM MDT):
No PIREP is currently available for this location.
AIRMET - Airmens Meteorological Information
KPUC - Price, Utah
Updated at 3:53 PM GMT on August 29, 2014 (9:53 AM MDT):
No AIRMET is currently available for this location.
SIGMET - Significant Meteorological Information
KPUC - Price, Utah
Updated at 3:53 PM GMT on August 29, 2014 (9:53 AM MDT):
No SIGMET is currently available for this location.
NOTAM - Notice to Airmen
KPUC - Price, Utah
Updated at 3:53 PM GMT on August 29, 2014 (9:53 AM MDT):
No NOTAM is currently available for this location.
Forecast Area
KPUC - Price, Utah
Updated at 3:53 PM GMT on August 29, 2014 (9:53 AM MDT):
No NOTAM is currently available for this location.
Aviation Weather Maps